sensor_id;sensor_type;location;lat;lon;timestamp;pressure;altitude;pressure_sealevel;temperature;humidity
84190;BME280;74321;53.406;8.146;2023-12-20T09:56:15;100873.94;;;5.00;100.00
84190;BME280;74321;53.406;8.146;2023-12-20T10:01:18;100897.91;;;5.13;100.00
84190;BME280;74321;53.406;8.146;2023-12-20T10:06:21;100858.91;;;6.08;100.00
84190;BME280;74321;53.406;8.146;2023-12-20T10:11:23;100904.25;;;5.83;100.00
84190;BME280;74321;53.406;8.146;2023-12-20T10:16:25;100925.38;;;5.32;100.00
84190;BME280;74321;53.406;8.146;2023-12-20T10:21:28;100846.53;;;4.84;100.00
84190;BME280;74321;53.406;8.146;2023-12-20T10:26:30;100907.13;;;6.56;100.00
84190;BME280;74321;53.406;8.146;2023-12-20T10:31:33;100872.63;;;7.58;87.03
84190;BME280;74321;53.406;8.146;2023-12-20T10:36:36;100890.16;;;6.58;97.07
84190;BME280;74321;53.406;8.146;2023-12-20T10:41:38;100885.25;;;8.50;83.46
84190;BME280;74321;53.406;8.146;2023-12-20T10:46:43;100886.69;;;6.53;92.90
84190;BME280;74321;53.406;8.146;2023-12-20T10:51:54;100875.69;;;8.20;82.77
84190;BME280;74321;53.406;8.146;2023-12-20T10:56:57;100861.75;;;10.22;71.97
84190;BME280;74321;53.406;8.146;2023-12-20T11:02:02;100855.88;;;7.88;78.73
84190;BME280;74321;53.406;8.146;2023-12-20T11:12:35;100825.53;;;8.34;76.85
84190;BME280;74321;53.406;8.146;2023-12-20T11:17:40;100852.13;;;7.46;87.89
84190;BME280;74321;53.406;8.146;2023-12-20T11:22:53;100864.19;;;7.64;85.59
84190;BME280;74321;53.406;8.146;2023-12-20T11:28:09;100858.44;;;7.01;91.28
84190;BME280;74321;53.406;8.146;2023-12-20T11:33:13;100874.41;;;6.23;93.48
84190;BME280;74321;53.406;8.146;2023-12-20T11:38:16;100877.41;;;5.49;95.91
84190;BME280;74321;53.406;8.146;2023-12-20T11:43:38;100879.53;;;5.28;99.22
84190;BME280;74321;53.406;8.146;2023-12-20T11:48:41;100874.47;;;5.28;100.00
84190;BME280;74321;53.406;8.146;2023-12-20T11:53:51;100836.25;;;6.91;93.87
84190;BME280;74321;53.406;8.146;2023-12-20T11:58:57;100853.22;;;10.20;68.38
84190;BME280;74321;53.406;8.146;2023-12-20T12:04:16;100857.38;;;10.71;66.63
84190;BME280;74321;53.406;8.146;2023-12-20T12:09:21;100861.78;;;9.71;68.50
84190;BME280;74321;53.406;8.146;2023-12-20T12:14:23;100847.13;;;10.69;65.71
84190;BME280;74321;53.406;8.146;2023-12-20T12:19:26;100864.31;;;9.91;66.90
84190;BME280;74321;53.406;8.146;2023-12-20T12:24:28;100862.31;;;8.53;71.33
84190;BME280;74321;53.406;8.146;2023-12-20T12:29:30;100852.66;;;8.13;74.67
84190;BME280;74321;53.406;8.146;2023-12-20T12:34:33;100843.78;;;6.81;83.24
84190;BME280;74321;53.406;8.146;2023-12-20T12:39:40;100847.97;;;6.13;83.15
84190;BME280;74321;53.406;8.146;2023-12-20T12:44:42;100860.38;;;6.53;82.46
84190;BME280;74321;53.406;8.146;2023-12-20T12:49:44;100816.03;;;6.37;85.63
84190;BME280;74321;53.406;8.146;2023-12-20T12:54:46;100849.97;;;6.34;86.77
84190;BME280;74321;53.406;8.146;2023-12-20T12:59:49;100836.13;;;6.14;84.34
84190;BME280;74321;53.406;8.146;2023-12-20T13:04:51;100829.38;;;6.17;87.31
84190;BME280;74321;53.406;8.146;2023-12-20T13:09:53;100843.56;;;6.03;89.35
84190;BME280;74321;53.406;8.146;2023-12-20T13:14:55;100841.97;;;5.58;90.51
84190;BME280;74321;53.406;8.146;2023-12-20T13:19:57;100858.63;;;5.41;93.32
84190;BME280;74321;53.406;8.146;2023-12-20T13:24:59;100826.22;;;5.29;93.80
84190;BME280;74321;53.406;8.146;2023-12-20T13:30:02;100852.84;;;5.50;92.75
84190;BME280;74321;53.406;8.146;2023-12-20T13:35:05;100815.69;;;5.08;94.63
84190;BME280;74321;53.406;8.146;2023-12-20T13:40:08;100835.44;;;5.23;95.27
84190;BME280;74321;53.406;8.146;2023-12-20T13:45:10;100839.00;;;5.32;96.23
84190;BME280;74321;53.406;8.146;2023-12-20T13:50:12;100846.16;;;5.55;94.84
84190;BME280;74321;53.406;8.146;2023-12-20T13:55:14;100842.06;;;5.63;93.69
84190;BME280;74321;53.406;8.146;2023-12-20T14:00:16;100816.38;;;5.46;95.83
84190;BME280;74321;53.406;8.146;2023-12-20T14:05:18;100813.56;;;5.31;96.31
84190;BME280;74321;53.406;8.146;2023-12-20T14:10:22;100816.44;;;5.51;95.06
84190;BME280;74321;53.406;8.146;2023-12-20T14:15:24;100808.56;;;5.37;97.06
84190;BME280;74321;53.406;8.146;2023-12-20T14:20:27;100821.69;;;5.61;92.83
84190;BME280;74321;53.406;8.146;2023-12-20T14:25:31;100804.47;;;5.45;94.73
84190;BME280;74321;53.406;8.146;2023-12-20T14:30:46;100836.22;;;5.69;92.55
84190;BME280;74321;53.406;8.146;2023-12-20T14:35:49;100831.97;;;5.68;95.04
84190;BME280;74321;53.406;8.146;2023-12-20T14:40:51;100828.56;;;5.67;93.11
84190;BME280;74321;53.406;8.146;2023-12-20T14:45:53;100811.50;;;5.60;93.35
84190;BME280;74321;53.406;8.146;2023-12-20T14:50:55;100769.66;;;5.38;90.06
84190;BME280;74321;53.406;8.146;2023-12-20T14:56:00;100806.25;;;5.49;95.69
84190;BME280;74321;53.406;8.146;2023-12-20T15:01:03;100811.09;;;5.35;97.65
84190;BME280;74321;53.406;8.146;2023-12-20T15:06:10;100826.53;;;5.46;97.58
84190;BME280;74321;53.406;8.146;2023-12-20T15:11:13;100807.56;;;5.29;94.80
84190;BME280;74321;53.406;8.146;2023-12-20T15:16:16;100813.22;;;5.13;95.56
84190;BME280;74321;53.406;8.146;2023-12-20T15:21:18;100819.25;;;5.18;95.27
84190;BME280;74321;53.406;8.146;2023-12-20T15:26:20;100803.75;;;5.04;97.85
84190;BME280;74321;53.406;8.146;2023-12-20T15:31:22;100810.78;;;5.19;100.00
84190;BME280;74321;53.406;8.146;2023-12-20T15:36:28;100821.56;;;5.05;100.00
84190;BME280;74321;53.406;8.146;2023-12-20T15:41:30;100788.28;;;4.92;99.46
84190;BME280;74321;53.406;8.146;2023-12-20T15:46:32;100787.75;;;5.08;100.00
84190;BME280;74321;53.406;8.146;2023-12-20T15:51:35;100796.97;;;5.04;100.00
84190;BME280;74321;53.406;8.146;2023-12-20T15:56:38;100805.34;;;4.99;100.00
84190;BME280;74321;53.406;8.146;2023-12-20T16:01:43;100782.19;;;4.82;100.00
84190;BME280;74321;53.406;8.146;2023-12-20T16:06:55;100794.34;;;4.98;100.00
84190;BME280;74321;53.406;8.146;2023-12-20T16:11:57;100790.84;;;4.92;100.00
84190;BME280;74321;53.406;8.146;2023-12-20T16:16:59;100783.94;;;4.86;100.00
84190;BME280;74321;53.406;8.146;2023-12-20T16:22:01;100801.16;;;5.01;100.00
84190;BME280;74321;53.406;8.146;2023-12-20T16:27:07;100794.28;;;4.95;100.00
84190;BME280;74321;53.406;8.146;2023-12-20T16:32:09;100796.06;;;5.01;100.00
84190;BME280;74321;53.406;8.146;2023-12-20T16:37:11;100773.19;;;4.98;100.00
84190;BME280;74321;53.406;8.146;2023-12-20T16:42:13;100790.09;;;4.97;100.00
84190;BME280;74321;53.406;8.146;2023-12-20T16:47:15;100768.94;;;4.97;100.00
84190;BME280;74321;53.406;8.146;2023-12-20T16:52:17;100777.47;;;5.02;100.00
84190;BME280;74321;53.406;8.146;2023-12-20T16:57:19;100786.19;;;5.16;100.00
84190;BME280;74321;53.406;8.146;2023-12-20T17:02:22;100757.88;;;4.96;100.00
84190;BME280;74321;53.406;8.146;2023-12-20T17:07:25;100742.66;;;4.96;100.00
84190;BME280;74321;53.406;8.146;2023-12-20T17:12:27;100756.47;;;5.12;100.00
84190;BME280;74321;53.406;8.146;2023-12-20T17:17:29;100744.47;;;5.02;100.00
84190;BME280;74321;53.406;8.146;2023-12-20T17:22:32;100717.91;;;4.85;100.00
84190;BME280;74321;53.406;8.146;2023-12-20T17:27:34;100726.47;;;4.90;100.00
84190;BME280;74321;53.406;8.146;2023-12-20T17:32:37;100723.91;;;4.88;100.00
84190;BME280;74321;53.406;8.146;2023-12-20T17:37:42;100722.09;;;4.81;100.00
84190;BME280;74321;53.406;8.146;2023-12-20T17:42:45;100685.50;;;4.70;100.00
84190;BME280;74321;53.406;8.146;2023-12-20T17:47:50;100650.50;;;4.52;100.00
84190;BME280;74321;53.406;8.146;2023-12-20T17:52:52;100689.81;;;4.74;100.00
84190;BME280;74321;53.406;8.146;2023-12-20T17:57:57;100627.50;;;4.43;100.00
84190;BME280;74321;53.406;8.146;2023-12-20T18:03:00;100686.50;;;4.79;100.00
84190;BME280;74321;53.406;8.146;2023-12-20T18:08:03;100639.66;;;4.61;100.00
84190;BME280;74321;53.406;8.146;2023-12-20T18:13:05;100648.34;;;4.73;100.00
84190;BME280;74321;53.406;8.146;2023-12-20T18:18:07;100636.53;;;4.75;100.00
84190;BME280;74321;53.406;8.146;2023-12-20T18:23:13;100609.34;;;4.68;100.00
84190;BME280;74321;53.406;8.146;2023-12-20T18:28:15;100612.13;;;4.84;100.00
84190;BME280;74321;53.406;8.146;2023-12-20T18:33:20;100592.59;;;4.79;100.00
84190;BME280;74321;53.406;8.146;2023-12-20T18:38:21;100588.41;;;4.82;100.00
84190;BME280;74321;53.406;8.146;2023-12-20T18:43:29;100570.63;;;4.82;100.00
84190;BME280;74321;53.406;8.146;2023-12-20T18:48:31;100547.72;;;4.78;100.00
84190;BME280;74321;53.406;8.146;2023-12-20T18:53:35;100547.94;;;4.91;100.00
84190;BME280;74321;53.406;8.146;2023-12-20T18:58:40;100536.97;;;4.95;100.00
84190;BME280;74321;53.406;8.146;2023-12-20T19:03:42;100537.94;;;5.04;100.00
84190;BME280;74321;53.406;8.146;2023-12-20T19:08:44;100512.63;;;5.09;100.00
84190;BME280;74321;53.406;8.146;2023-12-20T19:13:52;100487.22;;;5.07;100.00
84190;BME280;74321;53.406;8.146;2023-12-20T19:18:54;100498.44;;;5.23;100.00
84190;BME280;74321;53.406;8.146;2023-12-20T19:23:56;100452.56;;;5.13;100.00
84190;BME280;74321;53.406;8.146;2023-12-20T19:29:10;100401.63;;;4.99;100.00
84190;BME280;74321;53.406;8.146;2023-12-20T19:34:18;100404.38;;;5.17;100.00
84190;BME280;74321;53.406;8.146;2023-12-20T19:39:24;100407.09;;;5.35;100.00
84190;BME280;74321;53.406;8.146;2023-12-20T19:44:25;100408.97;;;5.50;100.00
84190;BME280;74321;53.406;8.146;2023-12-20T19:49:28;100369.16;;;5.52;100.00
84190;BME280;74321;53.406;8.146;2023-12-20T19:54:30;100355.63;;;5.53;100.00
84190;BME280;74321;53.406;8.146;2023-12-20T19:59:32;100348.25;;;5.81;100.00
84190;BME280;74321;53.406;8.146;2023-12-20T20:04:34;100341.47;;;5.84;100.00
84190;BME280;74321;53.406;8.146;2023-12-20T20:09:37;100342.47;;;6.00;100.00
84190;BME280;74321;53.406;8.146;2023-12-20T20:14:39;100309.47;;;6.09;100.00
84190;BME280;74321;53.406;8.146;2023-12-20T20:19:41;100319.69;;;6.15;100.00
84190;BME280;74321;53.406;8.146;2023-12-20T20:24:44;100326.59;;;6.36;100.00
84190;BME280;74321;53.406;8.146;2023-12-20T20:29:48;100311.34;;;6.44;100.00
84190;BME280;74321;53.406;8.146;2023-12-20T20:34:50;100295.28;;;6.50;100.00
84190;BME280;74321;53.406;8.146;2023-12-20T20:39:52;100280.00;;;6.53;100.00
84190;BME280;74321;53.406;8.146;2023-12-20T20:44:54;100256.31;;;6.66;100.00
84190;BME280;74321;53.406;8.146;2023-12-20T20:49:56;100252.09;;;6.80;100.00
84190;BME280;74321;53.406;8.146;2023-12-20T20:54:59;100245.34;;;6.90;100.00
84190;BME280;74321;53.406;8.146;2023-12-20T21:00:01;100232.59;;;6.99;100.00
84190;BME280;74321;53.406;8.146;2023-12-20T21:05:03;100219.03;;;7.06;100.00
84190;BME280;74321;53.406;8.146;2023-12-20T21:10:06;100227.53;;;7.19;100.00
84190;BME280;74321;53.406;8.146;2023-12-20T21:15:09;100203.75;;;7.06;100.00
84190;BME280;74321;53.406;8.146;2023-12-20T21:20:12;100253.84;;;7.19;100.00
84190;BME280;74321;53.406;8.146;2023-12-20T21:25:15;100179.09;;;6.85;100.00
84190;BME280;74321;53.406;8.146;2023-12-20T21:30:17;100203.75;;;7.08;100.00
84190;BME280;74321;53.406;8.146;2023-12-20T21:35:19;100238.59;;;7.38;100.00
84190;BME280;74321;53.406;8.146;2023-12-20T21:40:21;100213.94;;;7.33;100.00
84190;BME280;74321;53.406;8.146;2023-12-20T21:45:23;100245.38;;;7.57;100.00
84190;BME280;74321;53.406;8.146;2023-12-20T21:50:28;100227.50;;;7.66;100.00
84190;BME280;74321;53.406;8.146;2023-12-20T21:55:48;100129.03;;;6.96;100.00
84190;BME280;74321;53.406;8.146;2023-12-20T22:00:51;100187.59;;;7.33;100.00
84190;BME280;74321;53.406;8.146;2023-12-20T22:06:27;99843.97;;;5.27;100.00
